sensor_id;sensor_type;location;lat;lon;timestamp;temperature;humidity
72712;SHT30;60828;40.292;17.998;2022-07-23T00:00:43;27.52;53.30
72712;SHT30;60828;40.292;17.998;2022-07-23T00:03:09;27.58;53.14
72712;SHT30;60828;40.292;17.998;2022-07-23T00:05:35;27.45;53.28
72712;SHT30;60828;40.292;17.998;2022-07-23T00:08:03;27.49;53.36
72712;SHT30;60828;40.292;17.998;2022-07-23T00:10:30;27.41;53.34
72712;SHT30;60828;40.292;17.998;2022-07-23T00:12:56;27.40;53.33
72712;SHT30;60828;40.292;17.998;2022-07-23T00:15:22;27.30;53.29
72712;SHT30;60828;40.292;17.998;2022-07-23T00:17:48;27.20;53.79
72712;SHT30;60828;40.292;17.998;2022-07-23T00:20:14;27.14;54.23
72712;SHT30;60828;40.292;17.998;2022-07-23T00:22:54;27.15;54.77
72712;SHT30;60828;40.292;17.998;2022-07-23T00:25:21;27.10;54.80
72712;SHT30;60828;40.292;17.998;2022-07-23T00:27:48;27.00;54.82
72712;SHT30;60828;40.292;17.998;2022-07-23T00:30:16;27.02;54.91
72712;SHT30;60828;40.292;17.998;2022-07-23T00:32:53;27.00;54.58
72712;SHT30;60828;40.292;17.998;2022-07-23T00:35:21;26.94;54.09
72712;SHT30;60828;40.292;17.998;2022-07-23T00:37:47;26.96;53.90
72712;SHT30;60828;40.292;17.998;2022-07-23T00:40:13;26.92;53.98
72712;SHT30;60828;40.292;17.998;2022-07-23T00:42:40;26.84;54.23
72712;SHT30;60828;40.292;17.998;2022-07-23T00:45:07;26.76;54.60
72712;SHT30;60828;40.292;17.998;2022-07-23T00:47:33;26.63;56.59
72712;SHT30;60828;40.292;17.998;2022-07-23T00:49:59;26.65;57.60
72712;SHT30;60828;40.292;17.998;2022-07-23T00:52:25;26.66;58.99
72712;SHT30;60828;40.292;17.998;2022-07-23T00:54:50;26.59;59.61
72712;SHT30;60828;40.292;17.998;2022-07-23T00:57:17;26.53;60.55
72712;SHT30;60828;40.292;17.998;2022-07-23T00:59:43;26.49;62.65
72712;SHT30;60828;40.292;17.998;2022-07-23T01:02:09;26.41;61.98
72712;SHT30;60828;40.292;17.998;2022-07-23T01:04:35;26.39;63.10
72712;SHT30;60828;40.292;17.998;2022-07-23T01:07:01;26.44;63.03
72712;SHT30;60828;40.292;17.998;2022-07-23T01:09:27;26.45;62.44
72712;SHT30;60828;40.292;17.998;2022-07-23T01:11:54;26.41;62.68
72712;SHT30;60828;40.292;17.998;2022-07-23T01:14:20;26.45;62.30
72712;SHT30;60828;40.292;17.998;2022-07-23T01:16:48;26.44;63.21
72712;SHT30;60828;40.292;17.998;2022-07-23T01:19:15;26.41;63.17
72712;SHT30;60828;40.292;17.998;2022-07-23T01:21:42;26.31;64.84
72712;SHT30;60828;40.292;17.998;2022-07-23T01:24:09;26.42;62.67
72712;SHT30;60828;40.292;17.998;2022-07-23T01:26:35;26.44;62.57
72712;SHT30;60828;40.292;17.998;2022-07-23T01:29:02;26.38;62.52
72712;SHT30;60828;40.292;17.998;2022-07-23T01:31:27;26.32;62.82
72712;SHT30;60828;40.292;17.998;2022-07-23T01:33:53;26.37;62.04
72712;SHT30;60828;40.292;17.998;2022-07-23T01:36:19;26.31;60.91
72712;SHT30;60828;40.292;17.998;2022-07-23T01:38:44;26.32;60.52
72712;SHT30;60828;40.292;17.998;2022-07-23T01:41:10;26.45;60.61
72712;SHT30;60828;40.292;17.998;2022-07-23T01:43:35;26.45;60.27
72712;SHT30;60828;40.292;17.998;2022-07-23T01:46:01;26.46;59.88
72712;SHT30;60828;40.292;17.998;2022-07-23T01:48:26;26.45;57.92
72712;SHT30;60828;40.292;17.998;2022-07-23T01:50:52;26.46;58.57
72712;SHT30;60828;40.292;17.998;2022-07-23T01:53:19;26.39;59.75
72712;SHT30;60828;40.292;17.998;2022-07-23T01:55:45;26.39;61.39
72712;SHT30;60828;40.292;17.998;2022-07-23T01:58:10;26.39;63.34
72712;SHT30;60828;40.292;17.998;2022-07-23T02:00:36;26.34;64.15
72712;SHT30;60828;40.292;17.998;2022-07-23T02:03:02;26.28;64.75
72712;SHT30;60828;40.292;17.998;2022-07-23T02:05:27;26.22;65.17
72712;SHT30;60828;40.292;17.998;2022-07-23T02:07:57;26.05;65.22
72712;SHT30;60828;40.292;17.998;2022-07-23T02:10:23;25.97;64.74
72712;SHT30;60828;40.292;17.998;2022-07-23T02:12:48;25.98;64.47
72712;SHT30;60828;40.292;17.998;2022-07-23T02:15:14;25.72;64.95
72712;SHT30;60828;40.292;17.998;2022-07-23T02:17:40;25.56;66.11
72712;SHT30;60828;40.292;17.998;2022-07-23T02:20:07;25.60;66.06
72712;SHT30;60828;40.292;17.998;2022-07-23T02:22:33;25.77;66.11
72712;SHT30;60828;40.292;17.998;2022-07-23T02:24:58;25.73;66.31
72712;SHT30;60828;40.292;17.998;2022-07-23T02:27:24;25.80;65.90
72712;SHT30;60828;40.292;17.998;2022-07-23T02:29:49;25.74;66.69
72712;SHT30;60828;40.292;17.998;2022-07-23T02:32:15;25.70;65.96
72712;SHT30;60828;40.292;17.998;2022-07-23T02:34:41;25.69;65.64
72712;SHT30;60828;40.292;17.998;2022-07-23T02:37:06;25.81;65.25
72712;SHT30;60828;40.292;17.998;2022-07-23T02:39:34;25.77;65.82
72712;SHT30;60828;40.292;17.998;2022-07-23T02:41:59;25.80;65.69
72712;SHT30;60828;40.292;17.998;2022-07-23T02:44:25;25.79;66.19
72712;SHT30;60828;40.292;17.998;2022-07-23T02:46:50;25.87;66.19
72712;SHT30;60828;40.292;17.998;2022-07-23T02:49:16;25.89;66.41
72712;SHT30;60828;40.292;17.998;2022-07-23T02:51:41;25.90;66.45
72712;SHT30;60828;40.292;17.998;2022-07-23T02:54:07;25.97;66.32
72712;SHT30;60828;40.292;17.998;2022-07-23T02:56:32;25.91;66.89
72712;SHT30;60828;40.292;17.998;2022-07-23T02:58:58;25.89;67.12
72712;SHT30;60828;40.292;17.998;2022-07-23T03:01:23;25.81;68.60
72712;SHT30;60828;40.292;17.998;2022-07-23T03:03:49;25.84;69.17
72712;SHT30;60828;40.292;17.998;2022-07-23T03:06:14;25.91;68.85
72712;SHT30;60828;40.292;17.998;2022-07-23T03:08:40;25.97;68.94
72712;SHT30;60828;40.292;17.998;2022-07-23T03:11:05;25.96;69.29
72712;SHT30;60828;40.292;17.998;2022-07-23T03:13:36;25.96;69.18
72712;SHT30;60828;40.292;17.998;2022-07-23T03:16:02;25.89;69.04
72712;SHT30;60828;40.292;17.998;2022-07-23T03:18:28;25.87;68.80
72712;SHT30;60828;40.292;17.998;2022-07-23T03:20:54;25.89;68.42
72712;SHT30;60828;40.292;17.998;2022-07-23T03:23:19;25.87;67.97
72712;SHT30;60828;40.292;17.998;2022-07-23T03:25:45;25.87;67.72
72712;SHT30;60828;40.292;17.998;2022-07-23T03:28:16;25.86;67.34
72712;SHT30;60828;40.292;17.998;2022-07-23T03:30:42;25.89;66.91
72712;SHT30;60828;40.292;17.998;2022-07-23T03:33:08;25.89;66.88
72712;SHT30;60828;40.292;17.998;2022-07-23T03:35:34;25.89;66.86
72712;SHT30;60828;40.292;17.998;2022-07-23T03:37:59;25.96;66.45
72712;SHT30;60828;40.292;17.998;2022-07-23T03:40:25;26.02;66.09
72712;SHT30;60828;40.292;17.998;2022-07-23T03:42:50;26.05;66.16
72712;SHT30;60828;40.292;17.998;2022-07-23T03:45:16;26.07;66.03
72712;SHT30;60828;40.292;17.998;2022-07-23T03:47:41;26.11;65.89
72712;SHT30;60828;40.292;17.998;2022-07-23T03:50:08;26.13;66.11
72712;SHT30;60828;40.292;17.998;2022-07-23T03:52:34;26.16;66.19
72712;SHT30;60828;40.292;17.998;2022-07-23T03:54:59;26.18;66.99
72712;SHT30;60828;40.292;17.998;2022-07-23T03:57:25;26.14;67.68
72712;SHT30;60828;40.292;17.998;2022-07-23T03:59:50;26.27;67.42
72712;SHT30;60828;40.292;17.998;2022-07-23T04:02:16;26.32;67.39
72712;SHT30;60828;40.292;17.998;2022-07-23T04:04:41;26.28;67.79
72712;SHT30;60828;40.292;17.998;2022-07-23T04:07:07;26.39;67.74
72712;SHT30;60828;40.292;17.998;2022-07-23T04:09:33;26.39;67.83
72712;SHT30;60828;40.292;17.998;2022-07-23T04:11:58;26.55;67.67
72712;SHT30;60828;40.292;17.998;2022-07-23T04:14:24;26.60;67.64
72712;SHT30;60828;40.292;17.998;2022-07-23T04:16:49;26.71;67.04
72712;SHT30;60828;40.292;17.998;2022-07-23T04:19:15;26.73;66.82
72712;SHT30;60828;40.292;17.998;2022-07-23T04:21:40;26.75;66.10
72712;SHT30;60828;40.292;17.998;2022-07-23T04:24:06;26.71;63.28
72712;SHT30;60828;40.292;17.998;2022-07-23T04:26:31;26.66;61.74
72712;SHT30;60828;40.292;17.998;2022-07-23T04:28:57;26.68;59.44
72712;SHT30;60828;40.292;17.998;2022-07-23T04:31:22;26.72;58.14
72712;SHT30;60828;40.292;17.998;2022-07-23T04:33:48;26.78;56.34
72712;SHT30;60828;40.292;17.998;2022-07-23T04:36:13;26.82;56.70
72712;SHT30;60828;40.292;17.998;2022-07-23T04:38:39;26.86;55.55
72712;SHT30;60828;40.292;17.998;2022-07-23T04:41:04;27.08;54.80
72712;SHT30;60828;40.292;17.998;2022-07-23T04:43:30;27.33;54.50
72712;SHT30;60828;40.292;17.998;2022-07-23T04:45:55;27.70;52.74
72712;SHT30;60828;40.292;17.998;2022-07-23T04:48:21;28.24;50.18
72712;SHT30;60828;40.292;17.998;2022-07-23T04:50:47;28.50;49.43
72712;SHT30;60828;40.292;17.998;2022-07-23T04:53:12;28.40;48.76
72712;SHT30;60828;40.292;17.998;2022-07-23T04:55:38;28.17;47.57
72712;SHT30;60828;40.292;17.998;2022-07-23T04:58:03;28.14;46.09
72712;SHT30;60828;40.292;17.998;2022-07-23T05:00:29;28.10;45.77
72712;SHT30;60828;40.292;17.998;2022-07-23T05:02:54;28.14;45.33
72712;SHT30;60828;40.292;17.998;2022-07-23T05:05:20;28.23;44.34
72712;SHT30;60828;40.292;17.998;2022-07-23T05:07:45;28.24;44.45
72712;SHT30;60828;40.292;17.998;2022-07-23T05:10:11;28.37;43.69
72712;SHT30;60828;40.292;17.998;2022-07-23T05:12:36;28.47;43.41
72712;SHT30;60828;40.292;17.998;2022-07-23T05:15:02;28.61;43.44
72712;SHT30;60828;40.292;17.998;2022-07-23T05:17:27;28.75;42.57
72712;SHT30;60828;40.292;17.998;2022-07-23T05:19:53;28.85;42.19
72712;SHT30;60828;40.292;17.998;2022-07-23T05:22:18;28.99;40.94
72712;SHT30;60828;40.292;17.998;2022-07-23T05:24:44;29.27;40.65
72712;SHT30;60828;40.292;17.998;2022-07-23T05:27:09;29.44;40.23
72712;SHT30;60828;40.292;17.998;2022-07-23T05:29:35;29.98;39.69
72712;SHT30;60828;40.292;17.998;2022-07-23T05:32:00;30.28;38.77
72712;SHT30;60828;40.292;17.998;2022-07-23T05:34:26;30.90;37.58
72712;SHT30;60828;40.292;17.998;2022-07-23T05:36:51;32.13;35.84
72712;SHT30;60828;40.292;17.998;2022-07-23T05:39:17;33.91;32.98
72712;SHT30;60828;40.292;17.998;2022-07-23T05:41:42;35.24;31.39
72712;SHT30;60828;40.292;17.998;2022-07-23T05:44:08;36.96;28.82
72712;SHT30;60828;40.292;17.998;2022-07-23T05:46:33;39.52;26.04
72712;SHT30;60828;40.292;17.998;2022-07-23T05:48:59;41.10;24.40
72712;SHT30;60828;40.292;17.998;2022-07-23T05:51:24;42.45;22.78
72712;SHT30;60828;40.292;17.998;2022-07-23T05:53:51;44.36;21.37
72712;SHT30;60828;40.292;17.998;2022-07-23T05:56:17;46.00;20.23
72712;SHT30;60828;40.292;17.998;2022-07-23T05:58:43;47.36;18.89
72712;SHT30;60828;40.292;17.998;2022-07-23T06:01:09;48.18;18.54
72712;SHT30;60828;40.292;17.998;2022-07-23T06:03:35;48.27;17.56
72712;SHT30;60828;40.292;17.998;2022-07-23T06:06:00;48.69;17.55
72712;SHT30;60828;40.292;17.998;2022-07-23T06:08:26;48.54;17.87
72712;SHT30;60828;40.292;17.998;2022-07-23T06:10:51;47.76;17.46
72712;SHT30;60828;40.292;17.998;2022-07-23T06:13:18;48.18;17.16
72712;SHT30;60828;40.292;17.998;2022-07-23T06:15:44;48.68;17.22
72712;SHT30;60828;40.292;17.998;2022-07-23T06:18:09;48.55;17.03
72712;SHT30;60828;40.292;17.998;2022-07-23T06:20:35;48.62;16.69
72712;SHT30;60828;40.292;17.998;2022-07-23T06:23:00;48.59;16.81
72712;SHT30;60828;40.292;17.998;2022-07-23T06:25:26;49.25;16.70
72712;SHT30;60828;40.292;17.998;2022-07-23T06:27:51;49.67;15.95
72712;SHT30;60828;40.292;17.998;2022-07-23T06:30:17;50.18;15.55
72712;SHT30;60828;40.292;17.998;2022-07-23T06:32:48;49.60;15.73
72712;SHT30;60828;40.292;17.998;2022-07-23T06:35:16;48.18;16.02
72712;SHT30;60828;40.292;17.998;2022-07-23T06:37:42;49.20;15.57
72712;SHT30;60828;40.292;17.998;2022-07-23T06:40:08;48.95;15.72
72712;SHT30;60828;40.292;17.998;2022-07-23T06:42:34;48.85;15.84
72712;SHT30;60828;40.292;17.998;2022-07-23T06:45:03;48.13;16.11
72712;SHT30;60828;40.292;17.998;2022-07-23T06:47:29;48.63;15.93
72712;SHT30;60828;40.292;17.998;2022-07-23T06:49:57;49.37;15.90
72712;SHT30;60828;40.292;17.998;2022-07-23T06:52:25;50.25;15.40
72712;SHT30;60828;40.292;17.998;2022-07-23T06:54:52;48.89;15.53
72712;SHT30;60828;40.292;17.998;2022-07-23T06:57:18;49.14;15.81
72712;SHT30;60828;40.292;17.998;2022-07-23T06:59:44;48.78;15.97
72712;SHT30;60828;40.292;17.998;2022-07-23T07:02:10;49.20;16.07
72712;SHT30;60828;40.292;17.998;2022-07-23T07:04:37;48.88;16.14
72712;SHT30;60828;40.292;17.998;2022-07-23T07:07:03;48.03;16.60
72712;SHT30;60828;40.292;17.998;2022-07-23T07:09:28;46.91;16.98
72712;SHT30;60828;40.292;17.998;2022-07-23T07:11:54;46.64;17.56
72712;SHT30;60828;40.292;17.998;2022-07-23T07:14:20;46.17;17.57
72712;SHT30;60828;40.292;17.998;2022-07-23T07:16:46;45.72;17.87
72712;SHT30;60828;40.292;17.998;2022-07-23T07:19:12;46.54;17.41
72712;SHT30;60828;40.292;17.998;2022-07-23T07:21:38;47.06;17.08
72712;SHT30;60828;40.292;17.998;2022-07-23T07:24:03;46.09;17.98
72712;SHT30;60828;40.292;17.998;2022-07-23T07:26:29;46.11;18.01
72712;SHT30;60828;40.292;17.998;2022-07-23T07:28:56;45.01;18.50
72712;SHT30;60828;40.292;17.998;2022-07-23T07:31:21;44.66;18.82
72712;SHT30;60828;40.292;17.998;2022-07-23T07:33:47;44.69;18.93
72712;SHT30;60828;40.292;17.998;2022-07-23T07:36:13;44.90;18.97
72712;SHT30;60828;40.292;17.998;2022-07-23T07:38:38;44.14;18.90
72712;SHT30;60828;40.292;17.998;2022-07-23T07:41:04;43.98;19.21
72712;SHT30;60828;40.292;17.998;2022-07-23T07:43:29;43.61;19.19
72712;SHT30;60828;40.292;17.998;2022-07-23T07:45:55;43.92;18.84
72712;SHT30;60828;40.292;17.998;2022-07-23T07:48:20;43.61;18.44
72712;SHT30;60828;40.292;17.998;2022-07-23T07:50:46;44.29;18.50
72712;SHT30;60828;40.292;17.998;2022-07-23T07:53:11;44.90;18.10
72712;SHT30;60828;40.292;17.998;2022-07-23T07:55:37;44.66;17.57
72712;SHT30;60828;40.292;17.998;2022-07-23T07:58:02;44.58;17.77
72712;SHT30;60828;40.292;17.998;2022-07-23T08:00:28;44.39;18.19
72712;SHT30;60828;40.292;17.998;2022-07-23T08:02:54;44.09;18.60
72712;SHT30;60828;40.292;17.998;2022-07-23T08:05:22;43.76;18.91
72712;SHT30;60828;40.292;17.998;2022-07-23T08:07:48;44.12;18.93
72712;SHT30;60828;40.292;17.998;2022-07-23T08:10:14;43.90;18.77
72712;SHT30;60828;40.292;17.998;2022-07-23T08:12:49;43.84;18.39
72712;SHT30;60828;40.292;17.998;2022-07-23T08:15:17;44.40;18.47
72712;SHT30;60828;40.292;17.998;2022-07-23T08:17:44;43.71;19.00
72712;SHT30;60828;40.292;17.998;2022-07-23T08:20:12;43.46;18.71
72712;SHT30;60828;40.292;17.998;2022-07-23T08:22:53;43.50;19.01
72712;SHT30;60828;40.292;17.998;2022-07-23T08:25:27;43.71;19.01
72712;SHT30;60828;40.292;17.998;2022-07-23T08:27:54;43.32;18.92
72712;SHT30;60828;40.292;17.998;2022-07-23T08:30:20;42.81;19.10
72712;SHT30;60828;40.292;17.998;2022-07-23T08:33:00;43.35;18.85
72712;SHT30;60828;40.292;17.998;2022-07-23T08:35:33;43.80;18.64
72712;SHT30;60828;40.292;17.998;2022-07-23T08:38:01;44.08;18.20
72712;SHT30;60828;40.292;17.998;2022-07-23T08:40:28;43.63;18.67
72712;SHT30;60828;40.292;17.998;2022-07-23T08:42:54;43.67;18.80
72712;SHT30;60828;40.292;17.998;2022-07-23T08:45:21;43.10;18.86
72712;SHT30;60828;40.292;17.998;2022-07-23T08:47:51;43.12;18.76
72712;SHT30;60828;40.292;17.998;2022-07-23T08:50:17;43.09;18.51
72712;SHT30;60828;40.292;17.998;2022-07-23T08:52:43;43.35;18.53
72712;SHT30;60828;40.292;17.998;2022-07-23T08:55:09;43.95;18.53
72712;SHT30;60828;40.292;17.998;2022-07-23T08:57:35;43.44;18.64
72712;SHT30;60828;40.292;17.998;2022-07-23T09:00:00;42.90;19.50
72712;SHT30;60828;40.292;17.998;2022-07-23T09:02:26;42.72;21.11
72712;SHT30;60828;40.292;17.998;2022-07-23T09:04:52;42.72;21.31
72712;SHT30;60828;40.292;17.998;2022-07-23T09:07:18;41.68;22.27
72712;SHT30;60828;40.292;17.998;2022-07-23T09:09:43;42.09;21.67
72712;SHT30;60828;40.292;17.998;2022-07-23T09:12:10;41.65;22.40
72712;SHT30;60828;40.292;17.998;2022-07-23T09:14:44;41.89;21.91
72712;SHT30;60828;40.292;17.998;2022-07-23T09:17:16;42.30;21.63
72712;SHT30;60828;40.292;17.998;2022-07-23T09:19:44;42.81;21.18
72712;SHT30;60828;40.292;17.998;2022-07-23T09:22:23;42.68;21.70
72712;SHT30;60828;40.292;17.998;2022-07-23T09:25:12;41.58;22.49
72712;SHT30;60828;40.292;17.998;2022-07-23T09:27:47;42.00;22.17
72712;SHT30;60828;40.292;17.998;2022-07-23T09:30:13;42.39;22.18
72712;SHT30;60828;40.292;17.998;2022-07-23T09:32:39;42.71;21.24
72712;SHT30;60828;40.292;17.998;2022-07-23T09:35:04;42.44;21.85
72712;SHT30;60828;40.292;17.998;2022-07-23T09:37:31;42.61;21.70
72712;SHT30;60828;40.292;17.998;2022-07-23T09:40:05;42.51;21.25
72712;SHT30;60828;40.292;17.998;2022-07-23T09:42:31;42.95;20.77
72712;SHT30;60828;40.292;17.998;2022-07-23T09:44:58;43.16;20.88
72712;SHT30;60828;40.292;17.998;2022-07-23T09:47:25;42.94;20.46
72712;SHT30;60828;40.292;17.998;2022-07-23T09:52:31;42.41;21.17
72712;SHT30;60828;40.292;17.998;2022-07-23T09:54:59;41.95;21.49
72712;SHT30;60828;40.292;17.998;2022-07-23T09:57:25;41.57;21.45
72712;SHT30;60828;40.292;17.998;2022-07-23T09:59:52;41.31;22.07
72712;SHT30;60828;40.292;17.998;2022-07-23T10:02:18;41.55;21.89
72712;SHT30;60828;40.292;17.998;2022-07-23T10:04:44;40.97;22.45
72712;SHT30;60828;40.292;17.998;2022-07-23T10:07:10;41.00;22.67
72712;SHT30;60828;40.292;17.998;2022-07-23T10:09:39;41.01;22.77
72712;SHT30;60828;40.292;17.998;2022-07-23T10:12:11;40.86;22.48
72712;SHT30;60828;40.292;17.998;2022-07-23T10:14:38;41.34;22.34
72712;SHT30;60828;40.292;17.998;2022-07-23T10:17:04;41.59;22.33
72712;SHT30;60828;40.292;17.998;2022-07-23T10:19:31;41.68;22.07
72712;SHT30;60828;40.292;17.998;2022-07-23T10:22:00;42.13;21.73
72712;SHT30;60828;40.292;17.998;2022-07-23T10:36:13;40.55;22.59
72712;SHT30;60828;40.292;17.998;2022-07-23T10:38:51;40.94;22.39
72712;SHT30;60828;40.292;17.998;2022-07-23T10:41:37;41.04;22.55
72712;SHT30;60828;40.292;17.998;2022-07-23T10:44:17;40.89;22.85
72712;SHT30;60828;40.292;17.998;2022-07-23T10:47:12;41.23;22.45
72712;SHT30;60828;40.292;17.998;2022-07-23T10:57:56;41.03;22.91
72712;SHT30;60828;40.292;17.998;2022-07-23T11:00:34;40.52;23.03
72712;SHT30;60828;40.292;17.998;2022-07-23T11:03:01;40.89;22.77
72712;SHT30;60828;40.292;17.998;2022-07-23T11:16:11;41.75;21.48
72712;SHT30;60828;40.292;17.998;2022-07-23T11:24:08;42.11;21.04
72712;SHT30;60828;40.292;17.998;2022-07-23T11:34:46;41.68;21.46
72712;SHT30;60828;40.292;17.998;2022-07-23T11:37:27;41.37;21.63
72712;SHT30;60828;40.292;17.998;2022-07-23T11:39:57;41.42;21.57
72712;SHT30;60828;40.292;17.998;2022-07-23T11:42:23;41.88;21.13
72712;SHT30;60828;40.292;17.998;2022-07-23T11:44:50;41.92;21.24
72712;SHT30;60828;40.292;17.998;2022-07-23T11:47:24;41.90;21.11
72712;SHT30;60828;40.292;17.998;2022-07-23T11:49:58;42.26;21.02
72712;SHT30;60828;40.292;17.998;2022-07-23T11:52:26;41.95;21.05
72712;SHT30;60828;40.292;17.998;2022-07-23T11:54:57;42.05;20.96
72712;SHT30;60828;40.292;17.998;2022-07-23T11:57:29;42.48;20.56
72712;SHT30;60828;40.292;17.998;2022-07-23T11:59:57;41.71;21.26
72712;SHT30;60828;40.292;17.998;2022-07-23T12:02:23;42.09;20.96
72712;SHT30;60828;40.292;17.998;2022-07-23T12:04:51;42.41;20.71
72712;SHT30;60828;40.292;17.998;2022-07-23T12:07:37;42.74;20.43
72712;SHT30;60828;40.292;17.998;2022-07-23T12:10:15;42.27;21.05
72712;SHT30;60828;40.292;17.998;2022-07-23T12:13:19;42.11;21.26
72712;SHT30;60828;40.292;17.998;2022-07-23T12:15:43;41.75;21.20
72712;SHT30;60828;40.292;17.998;2022-07-23T12:18:16;42.29;20.97
72712;SHT30;60828;40.292;17.998;2022-07-23T12:20:44;42.11;20.72
72712;SHT30;60828;40.292;17.998;2022-07-23T12:23:12;42.29;20.89
72712;SHT30;60828;40.292;17.998;2022-07-23T12:25:41;42.40;20.90
72712;SHT30;60828;40.292;17.998;2022-07-23T12:28:18;42.44;20.55
72712;SHT30;60828;40.292;17.998;2022-07-23T12:33:33;42.32;21.24
72712;SHT30;60828;40.292;17.998;2022-07-23T12:36:02;42.03;21.35
72712;SHT30;60828;40.292;17.998;2022-07-23T12:38:37;42.15;20.98
72712;SHT30;60828;40.292;17.998;2022-07-23T12:41:03;41.93;21.30
72712;SHT30;60828;40.292;17.998;2022-07-23T12:43:44;41.51;21.54
72712;SHT30;60828;40.292;17.998;2022-07-23T12:46:17;42.36;21.18
72712;SHT30;60828;40.292;17.998;2022-07-23T12:51:25;41.74;20.80
72712;SHT30;60828;40.292;17.998;2022-07-23T12:53:53;42.00;21.13
72712;SHT30;60828;40.292;17.998;2022-07-23T12:56:21;42.03;21.05
72712;SHT30;60828;40.292;17.998;2022-07-23T12:58:52;42.22;20.70
72712;SHT30;60828;40.292;17.998;2022-07-23T13:06:34;41.96;20.62
72712;SHT30;60828;40.292;17.998;2022-07-23T13:09:00;41.86;20.65
72712;SHT30;60828;40.292;17.998;2022-07-23T13:11:25;41.68;20.80
72712;SHT30;60828;40.292;17.998;2022-07-23T13:13:51;41.35;20.86
72712;SHT30;60828;40.292;17.998;2022-07-23T13:16:16;41.75;20.96
72712;SHT30;60828;40.292;17.998;2022-07-23T13:18:42;42.32;20.39
72712;SHT30;60828;40.292;17.998;2022-07-23T13:21:08;42.09;21.07
72712;SHT30;60828;40.292;17.998;2022-07-23T13:23:34;41.96;21.00
72712;SHT30;60828;40.292;17.998;2022-07-23T13:25:59;41.97;20.09
72712;SHT30;60828;40.292;17.998;2022-07-23T13:28:25;41.31;20.92
72712;SHT30;60828;40.292;17.998;2022-07-23T13:30:51;41.92;20.33
72712;SHT30;60828;40.292;17.998;2022-07-23T13:33:21;41.59;20.07
72712;SHT30;60828;40.292;17.998;2022-07-23T13:35:47;41.95;19.96
72712;SHT30;60828;40.292;17.998;2022-07-23T13:38:13;42.00;20.06
72712;SHT30;60828;40.292;17.998;2022-07-23T13:40:41;41.38;21.09
72712;SHT30;60828;40.292;17.998;2022-07-23T13:43:09;41.47;20.41
72712;SHT30;60828;40.292;17.998;2022-07-23T13:45:35;41.88;20.32
72712;SHT30;60828;40.292;17.998;2022-07-23T13:48:01;41.76;20.30
72712;SHT30;60828;40.292;17.998;2022-07-23T13:50:27;41.82;20.38
72712;SHT30;60828;40.292;17.998;2022-07-23T13:52:53;42.05;20.36
72712;SHT30;60828;40.292;17.998;2022-07-23T13:55:18;42.11;20.14
72712;SHT30;60828;40.292;17.998;2022-07-23T13:57:44;41.48;20.94
72712;SHT30;60828;40.292;17.998;2022-07-23T14:00:10;41.82;20.70
72712;SHT30;60828;40.292;17.998;2022-07-23T14:02:37;41.40;20.94
72712;SHT30;60828;40.292;17.998;2022-07-23T14:05:05;41.26;21.37
72712;SHT30;60828;40.292;17.998;2022-07-23T14:07:33;40.78;21.33
72712;SHT30;60828;40.292;17.998;2022-07-23T14:09:58;41.06;21.03
72712;SHT30;60828;40.292;17.998;2022-07-23T14:12:24;41.26;21.46
72712;SHT30;60828;40.292;17.998;2022-07-23T14:14:50;41.09;21.69
72712;SHT30;60828;40.292;17.998;2022-07-23T14:17:16;41.59;21.04
72712;SHT30;60828;40.292;17.998;2022-07-23T14:19:41;41.27;21.14
72712;SHT30;60828;40.292;17.998;2022-07-23T14:22:07;40.63;21.65
72712;SHT30;60828;40.292;17.998;2022-07-23T14:24:33;41.20;21.46
72712;SHT30;60828;40.292;17.998;2022-07-23T14:27:00;41.28;20.84
72712;SHT30;60828;40.292;17.998;2022-07-23T14:29:26;41.62;20.31
72712;SHT30;60828;40.292;17.998;2022-07-23T14:31:52;41.07;20.17
72712;SHT30;60828;40.292;17.998;2022-07-23T14:34:17;41.30;20.55
72712;SHT30;60828;40.292;17.998;2022-07-23T14:36:43;41.24;21.06
72712;SHT30;60828;40.292;17.998;2022-07-23T14:39:08;41.06;21.33
72712;SHT30;60828;40.292;17.998;2022-07-23T14:41:35;40.99;21.09
72712;SHT30;60828;40.292;17.998;2022-07-23T14:44:02;41.04;21.30
72712;SHT30;60828;40.292;17.998;2022-07-23T14:46:27;41.62;20.60
72712;SHT30;60828;40.292;17.998;2022-07-23T14:48:53;41.55;20.41
72712;SHT30;60828;40.292;17.998;2022-07-23T14:51:18;41.62;20.64
72712;SHT30;60828;40.292;17.998;2022-07-23T14:53:44;41.35;20.96
72712;SHT30;60828;40.292;17.998;2022-07-23T14:56:09;41.26;21.10
72712;SHT30;60828;40.292;17.998;2022-07-23T14:58:35;41.17;21.32
72712;SHT30;60828;40.292;17.998;2022-07-23T15:01:00;41.47;20.94
72712;SHT30;60828;40.292;17.998;2022-07-23T15:03:26;41.45;20.93
72712;SHT30;60828;40.292;17.998;2022-07-23T15:05:51;41.21;20.96
72712;SHT30;60828;40.292;17.998;2022-07-23T15:08:17;41.30;20.97
72712;SHT30;60828;40.292;17.998;2022-07-23T15:10:42;41.45;20.93
72712;SHT30;60828;40.292;17.998;2022-07-23T15:13:08;41.10;20.89
72712;SHT30;60828;40.292;17.998;2022-07-23T15:15:33;40.97;20.48
72712;SHT30;60828;40.292;17.998;2022-07-23T15:17:59;40.86;20.42
72712;SHT30;60828;40.292;17.998;2022-07-23T15:20:24;40.72;21.11
72712;SHT30;60828;40.292;17.998;2022-07-23T15:22:50;40.80;21.60
72712;SHT30;60828;40.292;17.998;2022-07-23T15:25:15;40.80;22.13
72712;SHT30;60828;40.292;17.998;2022-07-23T15:27:41;40.96;21.76
72712;SHT30;60828;40.292;17.998;2022-07-23T15:30:07;40.76;21.92
72712;SHT30;60828;40.292;17.998;2022-07-23T15:32:33;40.10;22.41
72712;SHT30;60828;40.292;17.998;2022-07-23T15:34:58;40.56;21.82
72712;SHT30;60828;40.292;17.998;2022-07-23T15:37:25;40.28;21.71
72712;SHT30;60828;40.292;17.998;2022-07-23T15:39:51;40.60;21.40
72712;SHT30;60828;40.292;17.998;2022-07-23T15:42:16;40.58;21.15
72712;SHT30;60828;40.292;17.998;2022-07-23T15:44:43;40.48;21.88
72712;SHT30;60828;40.292;17.998;2022-07-23T15:47:13;40.02;22.12
72712;SHT30;60828;40.292;17.998;2022-07-23T15:49:39;40.02;22.09
72712;SHT30;60828;40.292;17.998;2022-07-23T15:52:05;39.18;24.06
72712;SHT30;60828;40.292;17.998;2022-07-23T15:54:31;39.53;23.66
72712;SHT30;60828;40.292;17.998;2022-07-23T15:56:57;39.45;22.96
72712;SHT30;60828;40.292;17.998;2022-07-23T15:59:23;39.43;23.13
72712;SHT30;60828;40.292;17.998;2022-07-23T16:01:48;39.47;23.97
72712;SHT30;60828;40.292;17.998;2022-07-23T16:04:14;39.12;24.35
72712;SHT30;60828;40.292;17.998;2022-07-23T16:06:39;39.09;24.54
72712;SHT30;60828;40.292;17.998;2022-07-23T16:09:07;39.04;24.80
72712;SHT30;60828;40.292;17.998;2022-07-23T16:11:33;38.98;25.25